Pinewood, Texas
Current Conditions -  °F | °C
As of 12:53 PM on Friday 31 Oct 2014 (Local Time) from KGGG Reporting Station
Clear Clear  
Wind Chill: 68°   Ceiling: Unl
Heat Index: 68°   Visibility: 10mi
Dew Point: 44°   Wind: 14mph
Humidity: 42%   Direction: 360°N
Pressure: 30.22"   Gusts: 18mph
Location:  32.4573°N, 94.6541°W
Report Text: KGGG 311753Z 36012G16KT 10SM CLR 20/07 A3022 RMK AO2 SLP231 T02000067 10200 20100 50001
Loading
Personal Weather Stations






























Interactive Weather Map
Tropical Storm Tracking
New forecast layout! Learn more

10-Day Weather Forecast

Advertisements
Track Severe Weather on mobile